Time;durP1;ratioP1;P1;durP2;ratioP2;P2;SDS_P1;SDS_P2;PMS_P1;PMS_P2;Temp;Humidity;BMP_temperature;BMP_pressure;BME280_temperature;BME280_humidity;BME280_pressure;Samples;Min_cycle;Max_cycle;Signal;HPM_P1;HPM_P2
2023/04/08 00:00:23;;;;;;;6.93;3.20;;;9.90;98.00;;;;;;5032484;28;20521;-65
2023/04/08 00:02:50;;;;;;;4.60;2.50;;;10.00;98.00;;;;;;5032435;28;20882;-64
2023/04/08 00:05:17;;;;;;;6.00;2.70;;;10.00;98.00;;;;;;5032414;28;20459;-64
2023/04/08 00:07:48;;;;;;;5.07;2.80;;;10.10;98.00;;;;;;5032511;28;20465;-65
2023/04/08 00:10:17;;;;;;;5.10;2.80;;;10.10;98.00;;;;;;5032398;28;20451;-64
2023/04/08 00:12:44;;;;;;;5.07;2.80;;;10.20;98.00;;;;;;5032382;28;20508;-66
2023/04/08 00:15:11;;;;;;;6.00;3.10;;;10.30;98.00;;;;;;5032245;28;20747;-65
2023/04/08 00:17:39;;;;;;;4.80;2.50;;;10.10;98.00;;;;;;5032051;28;20459;-65
2023/04/08 00:20:07;;;;;;;5.07;2.43;;;9.90;98.00;;;;;;5032143;28;20549;-65
2023/04/08 00:22:34;;;;;;;9.17;3.70;;;10.00;98.00;;;;;;5030775;28;20966;-66
2023/04/08 00:25:01;;;;;;;5.30;3.00;;;10.00;98.00;;;;;;5032194;28;20512;-65
2023/04/08 00:27:31;;;;;;;8.67;3.17;;;9.90;98.00;;;;;;5030774;28;20485;-65
2023/04/08 00:30:00;;;;;;;6.73;3.13;;;10.00;98.00;;;;;;5031968;28;20497;-65
2023/04/08 00:32:28;;;;;;;5.17;3.43;;;10.00;98.00;;;;;;5031985;28;20551;-65
2023/04/08 00:34:55;;;;;;;7.77;2.90;;;9.90;98.00;;;;;;5031444;28;21005;-65
2023/04/08 00:37:23;;;;;;;6.30;3.23;;;9.90;98.00;;;;;;5032034;28;20525;-65
2023/04/08 00:39:52;;;;;;;10.73;3.10;;;10.00;98.00;;;;;;5031685;28;20473;-65
2023/04/08 00:42:20;;;;;;;5.97;2.60;;;9.90;98.00;;;;;;5031755;28;20455;-64
2023/04/08 00:44:49;;;;;;;7.60;3.30;;;10.00;98.00;;;;;;5031607;28;20459;-65
2023/04/08 00:47:16;;;;;;;6.53;2.80;;;10.00;98.00;;;;;;5031715;28;20868;-65
2023/04/08 00:49:44;;;;;;;6.77;3.70;;;10.10;98.00;;;;;;5031344;28;20884;-65
2023/04/08 00:52:12;;;;;;;7.33;3.20;;;10.10;98.00;;;;;;5031667;28;20458;-64
2023/04/08 00:54:39;;;;;;;6.33;2.97;;;9.90;98.00;;;;;;5031377;28;20487;-65
2023/04/08 00:57:07;;;;;;;8.30;3.13;;;9.80;98.00;;;;;;5031520;28;20502;-64
2023/04/08 00:59:34;;;;;;;4.20;2.70;;;9.70;98.00;;;;;;5031274;28;20456;-65
2023/04/08 01:02:13;;;;;;;8.67;3.43;;;9.70;98.00;;;;;;5031360;28;20882;-65
2023/04/08 01:04:48;;;;;;;5.73;3.07;;;9.70;98.00;;;;;;5031338;28;20857;-65
2023/04/08 01:07:18;;;;;;;5.00;3.20;;;9.80;98.00;;;;;;5031346;28;20515;-65
2023/04/08 01:09:48;;;;;;;5.50;3.10;;;9.70;98.00;;;;;;5031518;28;20461;-65
2023/04/08 01:12:21;;;;;;;5.27;2.73;;;9.90;98.00;;;;;;5031354;28;20446;-65
2023/04/08 01:14:52;;;;;;;7.87;3.00;;;9.90;98.00;;;;;;5031380;28;20817;-65
2023/04/08 01:17:22;;;;;;;6.63;3.77;;;9.90;98.00;;;;;;5031153;28;20467;-64
2023/04/08 01:19:50;;;;;;;6.10;3.07;;;9.80;98.00;;;;;;5029658;28;20458;-65
2023/04/08 01:22:28;;;;;;;6.00;3.17;;;9.80;98.00;;;;;;5030870;28;20466;-64
2023/04/08 01:25:05;;;;;;;5.40;3.30;;;9.80;98.00;;;;;;5030085;28;20461;-65
2023/04/08 01:27:35;;;;;;;7.83;3.73;;;9.60;98.00;;;;;;5031194;28;20450;-65
2023/04/08 01:30:04;;;;;;;6.80;2.93;;;9.50;98.00;;;;;;5031043;28;20590;-65
2023/04/08 01:32:34;;;;;;;7.70;2.93;;;9.50;98.00;;;;;;5031169;28;20532;-65
2023/04/08 01:35:01;;;;;;;9.60;4.43;;;9.50;98.00;;;;;;5030543;28;20489;-64
2023/04/08 01:37:31;;;;;;;7.23;3.57;;;9.60;98.00;;;;;;5030963;28;20510;-65
2023/04/08 01:40:00;;;;;;;7.03;3.00;;;9.50;98.00;;;;;;5030962;28;20548;-65
2023/04/08 01:42:29;;;;;;;4.20;2.73;;;9.60;98.00;;;;;;5030946;28;20458;-64
2023/04/08 01:44:59;;;;;;;5.57;3.43;;;9.60;98.00;;;;;;5030880;28;20480;-64
2023/04/08 01:47:27;;;;;;;4.37;2.80;;;9.60;98.00;;;;;;5031108;28;20591;-65
2023/04/08 01:49:56;;;;;;;8.10;3.67;;;9.70;98.00;;;;;;5030835;28;20688;-64
2023/04/08 01:52:25;;;;;;;10.20;3.63;;;9.60;98.00;;;;;;5031072;28;20456;-64
2023/04/08 01:54:59;;;;;;;6.47;3.27;;;9.50;98.00;;;;;;5030777;28;20487;-65
2023/04/08 01:57:31;;;;;;;7.50;3.40;;;9.60;98.00;;;;;;5029725;28;20468;-64
2023/04/08 02:00:10;;;;;;;4.73;3.20;;;9.70;98.00;;;;;;5030735;28;20461;-65
2023/04/08 02:02:38;;;;;;;7.43;3.40;;;9.80;98.00;;;;;;5030539;28;20468;-65
2023/04/08 02:05:06;;;;;;;7.17;3.20;;;9.80;98.00;;;;;;5030815;28;20950;-64
2023/04/08 02:07:33;;;;;;;5.60;3.10;;;9.80;98.00;;;;;;5031259;28;20460;-65
2023/04/08 02:10:00;;;;;;;6.17;3.47;;;9.90;98.00;;;;;;5031075;28;20457;-64
2023/04/08 02:12:28;;;;;;;2.90;2.53;;;9.80;98.00;;;;;;5030935;28;20520;-64
2023/04/08 02:14:57;;;;;;;7.37;3.30;;;9.80;98.00;;;;;;5030755;28;20950;-65
2023/04/08 02:17:33;;;;;;;5.87;2.80;;;9.70;98.00;;;;;;5030680;28;20555;-65
2023/04/08 02:20:06;;;;;;;5.33;2.97;;;9.70;98.00;;;;;;5030585;28;20462;-65
2023/04/08 02:22:40;;;;;;;8.87;3.60;;;9.70;98.00;;;;;;5030719;28;20487;-64
2023/04/08 02:25:13;;;;;;;9.40;3.67;;;9.70;98.00;;;;;;5030569;28;20520;-65
2023/04/08 02:27:41;;;;;;;6.47;3.40;;;9.70;98.00;;;;;;5030687;28;20469;-65
2023/04/08 02:30:10;;;;;;;7.47;2.80;;;9.70;98.00;;;;;;5030588;28;20606;-65
2023/04/08 02:32:39;;;;;;;5.53;2.90;;;9.70;98.00;;;;;;5032738;28;20622;-65
2023/04/08 02:35:09;;;;;;;6.27;3.47;;;9.70;98.00;;;;;;5033841;28;20562;-65
2023/04/08 02:37:36;;;;;;;5.47;2.77;;;9.70;98.00;;;;;;5032810;28;20470;-65
2023/04/08 02:40:04;;;;;;;6.63;3.33;;;9.60;98.00;;;;;;5033126;28;20459;-65
2023/04/08 02:42:31;;;;;;;7.30;3.90;;;9.60;98.00;;;;;;5032489;28;20463;-64
2023/04/08 02:44:58;;;;;;;5.80;3.07;;;9.60;98.00;;;;;;5033708;28;20958;-65
2023/04/08 02:47:25;;;;;;;8.73;3.70;;;9.60;98.00;;;;;;5031884;28;20460;-65
2023/04/08 02:49:54;;;;;;;7.90;4.07;;;9.70;98.00;;;;;;5033356;28;20518;-66
2023/04/08 02:52:21;;;;;;;6.50;3.43;;;9.60;98.00;;;;;;5033218;28;20516;-65
2023/04/08 02:54:48;;;;;;;7.00;3.67;;;9.50;98.00;;;;;;5032661;28;20509;-64
2023/04/08 02:57:16;;;;;;;8.13;3.57;;;9.60;98.00;;;;;;5032694;28;20512;-65
2023/04/08 02:59:44;;;;;;;9.47;3.87;;;9.60;98.00;;;;;;5031514;28;20494;-64
2023/04/08 03:02:11;;;;;;;10.00;3.73;;;9.50;98.00;;;;;;5033040;28;20463;-65
2023/04/08 03:04:38;;;;;;;6.97;3.37;;;9.50;98.00;;;;;;5031335;28;20467;-65
2023/04/08 03:07:07;;;;;;;8.80;3.77;;;9.40;98.00;;;;;;5032843;28;20453;-65
2023/04/08 03:09:34;;;;;;;8.17;3.57;;;9.30;98.00;;;;;;5033014;28;20514;-66
2023/04/08 03:12:01;;;;;;;7.73;3.70;;;9.30;98.00;;;;;;5032581;28;20542;-65
2023/04/08 03:14:28;;;;;;;8.83;3.60;;;9.30;98.00;;;;;;5032449;28;20457;-64
2023/04/08 03:16:57;;;;;;;12.80;3.97;;;9.30;98.00;;;;;;5032225;28;20490;-64
2023/04/08 03:19:24;;;;;;;8.13;3.40;;;9.30;98.00;;;;;;5031128;28;20525;-65
2023/04/08 03:21:51;;;;;;;10.07;4.80;;;9.30;98.00;;;;;;5032422;28;20481;-64
2023/04/08 03:24:21;;;;;;;8.90;4.27;;;9.30;98.00;;;;;;5032127;28;21000;-65
2023/04/08 03:26:48;;;;;;;7.37;3.73;;;9.40;98.00;;;;;;5032387;28;20465;-65
2023/04/08 03:29:15;;;;;;;6.77;3.27;;;9.30;98.00;;;;;;5032272;28;20468;-65
2023/04/08 03:31:42;;;;;;;11.10;4.77;;;9.20;98.00;;;;;;5032069;28;20456;-65
2023/04/08 03:34:09;;;;;;;7.00;3.63;;;9.20;98.00;;;;;;5031919;28;20520;-65
2023/04/08 03:36:36;;;;;;;8.88;4.60;;;9.20;98.00;;;;;;4992854;28;1148783;-64
2023/04/08 03:39:03;;;;;;;8.70;4.20;;;9.50;98.00;;;;;;5032870;28;20211;-64
2023/04/08 03:41:33;;;;;;;12.00;5.63;;;9.40;98.00;;;;;;5032824;28;20463;-65
2023/04/08 03:44:00;;;;;;;7.60;3.70;;;9.30;98.00;;;;;;5031727;28;20465;-65
2023/04/08 03:46:27;;;;;;;6.43;4.00;;;9.20;98.00;;;;;;5031493;28;20461;-65
2023/04/08 03:48:54;;;;;;;12.70;4.20;;;9.10;98.00;;;;;;5032713;28;20462;-64
2023/04/08 03:51:21;;;;;;;9.60;4.27;;;9.10;98.00;;;;;;5031427;28;20461;-64
2023/04/08 03:53:49;;;;;;;11.00;4.83;;;9.20;98.00;;;;;;5032714;28;20523;-65
2023/04/08 03:56:16;;;;;;;7.60;3.80;;;9.10;98.00;;;;;;5032422;28;20496;-64
2023/04/08 03:58:46;;;;;;;10.73;3.77;;;9.10;98.00;;;;;;5032584;28;20547;-65
2023/04/08 04:01:13;;;;;;;5.70;3.00;;;9.20;98.00;;;;;;5031489;28;20458;-65
2023/04/08 04:03:40;;;;;;;9.50;3.93;;;9.20;98.00;;;;;;5032475;28;20508;-64
2023/04/08 04:06:08;;;;;;;8.80;4.10;;;9.20;98.00;;;;;;5032743;28;20451;-64
2023/04/08 04:08:35;;;;;;;6.40;3.90;;;9.10;98.00;;;;;;5032620;28;20952;-64
2023/04/08 04:11:09;;;;;;;11.93;4.67;;;9.10;98.00;;;;;;5032480;28;20513;-65
2023/04/08 04:13:36;;;;;;;8.47;4.50;;;9.10;98.00;;;;;;5032077;28;20478;-65
2023/04/08 04:16:05;;;;;;;6.27;3.50;;;9.10;98.00;;;;;;5032138;28;20485;-65
2023/04/08 04:18:32;;;;;;;5.73;3.33;;;9.20;98.00;;;;;;5032071;28;20511;-64
2023/04/08 04:21:00;;;;;;;9.17;4.13;;;9.30;98.00;;;;;;5032050;28;20489;-65
2023/04/08 04:23:27;;;;;;;9.33;3.63;;;9.30;98.00;;;;;;5030871;28;20456;-65
2023/04/08 04:25:54;;;;;;;10.33;3.70;;;9.50;98.00;;;;;;5032062;28;21023;-65
2023/04/08 04:28:21;;;;;;;10.17;4.23;;;9.30;98.00;;;;;;5032009;28;20469;-65
2023/04/08 04:30:48;;;;;;;10.30;4.60;;;9.30;98.00;;;;;;5031763;28;20468;-65
2023/04/08 04:33:17;;;;;;;8.70;4.17;;;9.10;98.00;;;;;;5031952;28;20448;-65
2023/04/08 04:35:44;;;;;;;7.77;4.23;;;9.00;98.00;;;;;;5031464;28;20482;-65
2023/04/08 04:38:12;;;;;;;7.20;3.67;;;9.00;98.00;;;;;;5031861;28;20517;-65
2023/04/08 04:40:39;;;;;;;7.83;3.60;;;8.90;98.00;;;;;;5030454;28;20534;-65
2023/04/08 04:43:06;;;;;;;7.53;3.90;;;8.90;98.00;;;;;;5031823;28;20798;-65
2023/04/08 04:45:33;;;;;;;6.60;3.17;;;8.90;98.00;;;;;;5031545;28;20514;-65
2023/04/08 04:48:00;;;;;;;5.30;3.53;;;9.00;98.00;;;;;;5031610;28;20463;-64
2023/04/08 04:50:29;;;;;;;7.20;3.77;;;9.00;98.00;;;;;;5031469;28;20550;-64
2023/04/08 04:52:56;;;;;;;8.70;4.77;;;9.00;98.00;;;;;;5031372;28;21072;-65
2023/04/08 04:55:23;;;;;;;8.90;3.67;;;9.00;98.00;;;;;;5029570;28;20462;-64
2023/04/08 04:57:50;;;;;;;10.10;3.60;;;9.10;98.00;;;;;;5031457;28;20453;-65
2023/04/08 05:00:20;;;;;;;9.63;4.10;;;9.10;98.00;;;;;;5031407;28;20465;-64
2023/04/08 05:02:47;;;;;;;9.03;3.70;;;9.10;98.00;;;;;;5031467;28;20466;-65
2023/04/08 05:05:14;;;;;;;9.50;4.57;;;9.20;98.00;;;;;;5030442;28;20835;-65
2023/04/08 05:07:42;;;;;;;8.00;3.97;;;9.30;98.00;;;;;;5031579;28;20459;-65
2023/04/08 05:10:10;;;;;;;7.20;3.30;;;9.40;98.00;;;;;;5031768;28;20510;-65
2023/04/08 05:12:37;;;;;;;9.63;3.57;;;9.50;98.00;;;;;;5031184;28;20970;-65
2023/04/08 05:15:05;;;;;;;6.87;3.87;;;9.50;98.00;;;;;;5031140;28;20456;-64
2023/04/08 05:17:33;;;;;;;10.30;4.63;;;9.50;98.00;;;;;;5031037;28;20485;-65
2023/04/08 05:20:00;;;;;;;8.03;4.07;;;9.50;98.00;;;;;;5031106;28;20950;-65
2023/04/08 05:22:29;;;;;;;10.03;4.40;;;9.40;98.00;;;;;;5031270;28;20532;-65
2023/04/08 05:24:58;;;;;;;9.77;4.87;;;9.40;98.00;;;;;;5029899;28;20475;-65
2023/04/08 05:27:26;;;;;;;12.87;4.43;;;9.40;98.00;;;;;;5031095;28;20810;-65
2023/04/08 05:29:53;;;;;;;15.00;5.20;;;9.40;98.00;;;;;;5031270;28;20464;-64
2023/04/08 05:32:20;;;;;;;9.70;4.60;;;9.40;98.00;;;;;;5031048;28;20515;-65
2023/04/08 05:34:47;;;;;;;9.00;3.90;;;9.40;98.00;;;;;;5030804;28;20469;-64
2023/04/08 05:37:14;;;;;;;11.60;5.07;;;9.10;98.00;;;;;;5031042;28;20501;-65
2023/04/08 05:39:41;;;;;;;11.60;4.77;;;9.10;98.00;;;;;;5030937;28;20454;-65
2023/04/08 05:42:12;;;;;;;7.83;3.90;;;9.00;98.00;;;;;;5031092;28;20522;-65
2023/04/08 05:44:40;;;;;;;8.30;3.63;;;9.00;98.00;;;;;;5030968;28;20459;-65
2023/04/08 05:47:08;;;;;;;7.97;4.30;;;9.10;98.00;;;;;;5031122;28;20490;-65
2023/04/08 05:49:35;;;;;;;7.43;3.47;;;9.20;98.00;;;;;;5030719;28;21031;-65
2023/04/08 05:52:03;;;;;;;13.00;4.83;;;9.30;98.00;;;;;;5031440;28;20460;-65
2023/04/08 05:54:30;;;;;;;11.70;4.80;;;9.20;98.00;;;;;;5030831;28;20486;-64
2023/04/08 05:56:57;;;;;;;9.50;4.43;;;9.20;98.00;;;;;;5030756;28;21042;-65
2023/04/08 05:59:26;;;;;;;6.93;3.57;;;9.40;98.00;;;;;;5029811;28;20511;-65
2023/04/08 06:01:55;;;;;;;8.40;3.97;;;9.40;98.00;;;;;;5030951;28;20953;-63
2023/04/08 06:04:22;;;;;;;12.63;4.63;;;9.40;98.00;;;;;;5031153;28;20455;-61
2023/04/08 06:06:49;;;;;;;10.23;4.30;;;9.40;98.00;;;;;;5031833;28;20525;-63
2023/04/08 06:09:16;;;;;;;9.60;5.30;;;9.40;98.00;;;;;;5034607;28;20454;-62
2023/04/08 06:11:46;;;;;;;9.33;3.80;;;9.30;98.00;;;;;;5034507;28;20913;-62
2023/04/08 06:14:13;;;;;;;11.57;5.43;;;9.40;98.00;;;;;;5034353;28;20465;-62
2023/04/08 06:16:41;;;;;;;7.83;3.73;;;9.40;98.00;;;;;;5034370;28;20484;-62
2023/04/08 06:19:09;;;;;;;14.70;5.27;;;9.30;98.00;;;;;;5034455;28;20828;-62
2023/04/08 06:21:36;;;;;;;13.57;4.30;;;9.30;98.00;;;;;;5034287;28;20803;-62
2023/04/08 06:24:03;;;;;;;8.50;3.63;;;9.20;98.00;;;;;;5034188;28;20456;-62
2023/04/08 06:26:30;;;;;;;9.60;4.20;;;9.30;98.00;;;;;;5034354;28;20518;-63
2023/04/08 06:28:57;;;;;;;7.30;4.07;;;9.40;98.00;;;;;;5033992;28;20458;-62
2023/04/08 06:31:24;;;;;;;6.80;4.23;;;9.40;98.00;;;;;;5034497;28;20957;-62
2023/04/08 06:33:53;;;;;;;10.33;4.63;;;9.40;98.00;;;;;;5034135;28;20460;-63
2023/04/08 06:36:20;;;;;;;12.50;4.63;;;9.20;98.00;;;;;;5034078;28;21088;-61
2023/04/08 06:38:48;;;;;;;9.47;4.30;;;9.30;98.00;;;;;;5034097;28;20955;-62
2023/04/08 06:41:15;;;;;;;10.20;4.10;;;9.40;98.00;;;;;;5034243;28;20816;-62
2023/04/08 06:43:42;;;;;;;6.83;3.63;;;9.50;98.00;;;;;;5033802;28;20465;-62
2023/04/08 06:46:09;;;;;;;9.73;3.77;;;9.60;98.00;;;;;;5034182;28;20464;-62
2023/04/08 06:48:37;;;;;;;7.07;3.53;;;9.70;98.00;;;;;;5034542;28;20458;-63
2023/04/08 06:51:06;;;;;;;11.73;4.30;;;9.80;98.00;;;;;;5034500;28;20881;-62
2023/04/08 06:53:35;;;;;;;12.20;5.50;;;9.90;98.00;;;;;;5033972;28;20546;-63
2023/04/08 06:56:02;;;;;;;11.37;4.57;;;9.90;98.00;;;;;;5032726;28;20461;-62
2023/04/08 06:58:29;;;;;;;9.33;4.57;;;10.00;98.00;;;;;;5034764;28;20816;-63
2023/04/08 07:01:00;;;;;;;9.77;4.07;;;9.90;98.00;;;;;;5034474;28;20458;-62
2023/04/08 07:03:27;;;;;;;6.97;3.97;;;9.70;98.00;;;;;;5034328;28;20459;-64
2023/04/08 07:05:55;;;;;;;7.47;3.87;;;9.60;98.00;;;;;;5034310;28;21012;-62
2023/04/08 07:08:24;;;;;;;5.90;3.20;;;9.60;98.00;;;;;;5034411;28;20460;-64
2023/04/08 07:10:52;;;;;;;8.50;3.93;;;9.80;98.00;;;;;;5032958;28;20498;-62
2023/04/08 07:13:21;;;;;;;8.07;3.77;;;9.70;98.00;;;;;;5034160;28;20454;-62
2023/04/08 07:15:48;;;;;;;9.27;4.37;;;9.60;98.00;;;;;;5033813;28;20846;-63
2023/04/08 07:18:16;;;;;;;10.10;4.03;;;9.60;98.00;;;;;;5032941;28;20509;-63
2023/04/08 07:20:45;;;;;;;11.93;4.77;;;9.70;98.00;;;;;;5033752;28;21023;-63
2023/04/08 07:23:12;;;;;;;6.57;3.50;;;9.70;98.00;;;;;;5033799;28;20453;-63
2023/04/08 07:25:41;;;;;;;9.20;3.70;;;9.60;98.00;;;;;;5033601;28;20956;-62
2023/04/08 07:28:08;;;;;;;6.27;3.37;;;9.70;98.00;;;;;;5033732;28;20470;-63
2023/04/08 07:30:35;;;;;;;8.97;4.50;;;9.80;98.00;;;;;;5033492;28;20815;-62
2023/04/08 07:33:02;;;;;;;7.00;3.53;;;10.00;98.00;;;;;;5033662;28;20517;-64
2023/04/08 07:35:30;;;;;;;9.10;3.97;;;10.20;98.00;;;;;;5033107;28;20468;-62
2023/04/08 07:37:57;;;;;;;10.00;4.00;;;10.20;98.00;;;;;;5033439;28;20486;-62
2023/04/08 07:40:25;;;;;;;12.03;4.20;;;10.30;98.00;;;;;;5033669;28;20458;-63
2023/04/08 07:42:53;;;;;;;12.00;4.57;;;10.30;98.00;;;;;;5033734;28;20461;-62
2023/04/08 07:45:20;;;;;;;6.60;3.90;;;10.30;98.00;;;;;;5033608;28;20478;-62
2023/04/08 07:47:47;;;;;;;8.73;3.70;;;10.30;98.00;;;;;;5033549;28;20519;-63
2023/04/08 07:50:15;;;;;;;6.63;4.13;;;10.30;98.00;;;;;;5033419;28;20465;-62
2023/04/08 07:52:42;;;;;;;11.23;4.50;;;10.30;98.00;;;;;;5033198;28;20465;-62
2023/04/08 07:55:10;;;;;;;9.40;3.97;;;10.40;98.00;;;;;;5032188;28;20969;-62
2023/04/08 07:57:37;;;;;;;11.70;5.47;;;10.40;98.00;;;;;;5033242;28;20477;-62
2023/04/08 08:00:19;;;;;;;9.67;4.50;;;10.60;98.00;;;;;;5033302;28;20787;-62
2023/04/08 08:02:47;;;;;;;11.00;4.20;;;10.60;98.00;;;;;;5032824;28;20451;-61
2023/04/08 08:05:15;;;;;;;13.70;4.83;;;10.70;98.00;;;;;;5052859;28;20469;-63
2023/04/08 08:07:42;;;;;;;10.63;5.00;;;10.70;98.00;;;;;;5052649;28;20458;-62
2023/04/08 08:10:10;;;;;;;10.63;4.80;;;10.70;98.00;;;;;;5052881;28;20909;-62
2023/04/08 08:12:37;;;;;;;11.30;4.77;;;10.90;98.00;;;;;;5052583;28;20548;-63
2023/04/08 08:15:05;;;;;;;9.30;4.60;;;11.00;98.00;;;;;;5052370;28;20458;-62
2023/04/08 08:17:33;;;;;;;9.50;4.47;;;11.10;98.00;;;;;;5052107;28;20487;-64
2023/04/08 08:20:02;;;;;;;11.83;5.17;;;11.20;98.00;;;;;;5052288;28;20466;-63
2023/04/08 08:22:29;;;;;;;11.40;4.77;;;11.30;98.00;;;;;;5052092;28;20474;-62
2023/04/08 08:24:57;;;;;;;13.10;5.60;;;11.40;98.00;;;;;;5050469;28;20984;-62
2023/04/08 08:27:24;;;;;;;11.80;5.07;;;11.40;98.00;;;;;;5051918;28;20453;-62
2023/04/08 08:29:51;;;;;;;7.60;4.33;;;11.50;98.00;;;;;;5051546;28;20458;-62
2023/04/08 08:32:18;;;;;;;10.47;4.23;;;11.60;98.00;;;;;;5052434;28;20497;-63
2023/04/08 08:34:47;;;;;;;11.67;5.13;;;11.70;98.00;;;;;;5051623;28;20746;-62
2023/04/08 08:37:14;;;;;;;11.67;5.13;;;11.70;98.00;;;;;;5051502;28;21015;-64
2023/04/08 08:39:41;;;;;;;11.23;4.97;;;11.50;98.00;;;;;;5051609;28;20539;-62
2023/04/08 08:42:19;;;;;;;10.47;5.60;;;11.30;98.00;;;;;;5052317;28;20833;-62
2023/04/08 08:44:46;;;;;;;10.60;4.63;;;11.50;98.00;;;;;;5051913;28;20877;-62
2023/04/08 08:47:13;;;;;;;8.67;4.47;;;11.60;98.00;;;;;;5052018;28;20457;-63
2023/04/08 08:49:42;;;;;;;8.90;4.33;;;11.70;98.00;;;;;;5052012;28;20505;-63
2023/04/08 08:52:10;;;;;;;9.60;4.20;;;11.70;98.00;;;;;;5051189;28;20461;-63
2023/04/08 08:54:37;;;;;;;13.17;4.70;;;11.90;98.00;;;;;;5051257;28;20547;-63
2023/04/08 08:57:04;;;;;;;10.00;4.60;;;12.00;98.00;;;;;;5051707;28;20487;-62
2023/04/08 08:59:33;;;;;;;8.87;4.03;;;11.90;98.00;;;;;;5052273;28;20971;-61
2023/04/08 09:02:01;;;;;;;9.80;4.50;;;12.10;98.00;;;;;;5051877;28;20808;-63
2023/04/08 09:04:28;;;;;;;9.90;5.10;;;12.20;98.00;;;;;;5050539;28;20514;-63
2023/04/08 09:07:12;;;;;;;8.23;4.50;;;12.20;98.00;;;;;;5050358;28;20443;-63
2023/04/08 09:09:50;;;;;;;12.30;4.73;;;12.20;98.00;;;;;;5051432;28;20893;-63
2023/04/08 09:12:17;;;;;;;11.23;5.00;;;12.10;98.00;;;;;;5051585;28;20464;-64
2023/04/08 09:14:44;;;;;;;12.90;5.10;;;12.10;98.00;;;;;;5051171;28;20455;-62
2023/04/08 09:17:11;;;;;;;11.30;5.03;;;12.10;98.00;;;;;;5051393;28;20613;-62
2023/04/08 09:19:38;;;;;;;9.43;4.83;;;12.20;98.00;;;;;;5051217;28;20468;-62
2023/04/08 09:22:06;;;;;;;11.70;5.03;;;12.30;98.00;;;;;;5051361;28;20869;-63
2023/04/08 09:24:35;;;;;;;10.63;5.00;;;12.40;98.00;;;;;;5051324;28;20561;-63
2023/04/08 09:27:03;;;;;;;18.60;5.97;;;12.30;98.00;;;;;;5051117;28;20459;-62
2023/04/08 09:29:30;;;;;;;9.77;4.60;;;12.20;98.00;;;;;;5051224;28;20459;-62
2023/04/08 09:32:00;;;;;;;10.70;5.13;;;12.40;98.00;;;;;;5033808;28;20453;-62
2023/04/08 09:34:31;;;;;;;11.20;4.70;;;12.50;98.00;;;;;;5050861;28;20459;-62
2023/04/08 09:36:58;;;;;;;10.50;5.27;;;12.70;98.00;;;;;;5050767;28;20597;-62
2023/04/08 09:39:25;;;;;;;10.80;5.10;;;12.90;98.00;;;;;;5050793;28;20471;-62
2023/04/08 09:41:59;;;;;;;14.10;5.67;;;13.20;98.00;;;;;;5052336;28;21067;-63
2023/04/08 09:44:30;;;;;;;9.97;5.00;;;13.60;98.00;;;;;;5054989;28;20550;-62
2023/04/08 09:47:06;;;;;;;10.77;4.63;;;13.60;98.00;;;;;;5054483;28;20883;-63
2023/04/08 09:49:38;;;;;;;10.47;4.70;;;13.50;98.00;;;;;;5035038;28;20459;-62
2023/04/08 09:52:08;;;;;;;9.10;4.67;;;13.40;98.00;;;;;;5034976;28;20496;-63
2023/04/08 09:54:43;;;;;;;10.30;4.80;;;13.30;98.00;;;;;;5033331;28;20463;-62
2023/04/08 09:57:17;;;;;;;11.30;5.20;;;13.30;98.00;;;;;;5034876;28;20944;-64
2023/04/08 09:59:52;;;;;;;11.83;4.90;;;13.20;98.00;;;;;;5033955;28;20494;-64
2023/04/08 10:02:28;;;;;;;10.60;4.87;;;13.00;98.00;;;;;;5035308;28;20460;-62
2023/04/08 10:04:57;;;;;;;10.23;5.30;;;12.90;98.00;;;;;;5034592;28;20560;-64
2023/04/08 10:07:24;;;;;;;10.33;4.60;;;12.90;98.00;;;;;;5034595;28;20465;-64
2023/04/08 10:09:52;;;;;;;10.10;4.80;;;12.90;98.00;;;;;;5035046;28;20469;-62
2023/04/08 10:12:21;;;;;;;9.20;4.80;;;12.80;98.00;;;;;;5034636;28;20509;-63
2023/04/08 10:15:22;;;;;;;9.00;4.40;;;12.90;98.00;;;;;;5034302;28;20553;-63
2023/04/08 10:17:49;;;;;;;12.50;5.40;;;12.80;98.00;;;;;;5034450;28;20565;-63
2023/04/08 10:20:48;;;;;;;14.77;6.00;;;12.70;98.00;;;;;;5034698;28;20462;-64
2023/04/08 10:23:17;;;;;;;10.80;4.83;;;12.60;98.00;;;;;;5029275;28;20541;-63
2023/04/08 10:25:46;;;;;;;13.93;5.60;;;12.60;98.00;;;;;;5033986;28;20464;-64
2023/04/08 10:28:32;;;;;;;10.97;5.13;;;12.50;98.00;;;;;;5033211;28;20457;-62
2023/04/08 10:31:02;;;;;;;14.63;5.23;;;12.50;98.00;;;;;;5034099;28;20464;-62
2023/04/08 10:33:34;;;;;;;10.10;5.23;;;12.50;98.00;;;;;;5032814;28;20945;-63
2023/04/08 10:36:10;;;;;;;10.87;4.60;;;12.40;98.00;;;;;;5033760;28;20527;-63
2023/04/08 10:38:37;;;;;;;8.73;4.57;;;12.30;98.00;;;;;;5032847;28;21001;-62
2023/04/08 10:41:04;;;;;;;11.60;5.20;;;12.20;98.00;;;;;;5034090;28;20491;-61
2023/04/08 10:43:38;;;;;;;10.30;5.00;;;12.30;98.00;;;;;;5032873;28;20510;-62
2023/04/08 10:46:05;;;;;;;13.70;6.00;;;12.40;98.00;;;;;;5032887;28;20849;-62
2023/04/08 10:48:32;;;;;;;10.73;4.80;;;12.40;98.00;;;;;;5033802;28;20459;-63
2023/04/08 10:51:01;;;;;;;9.03;4.50;;;12.40;98.00;;;;;;5033730;28;20466;-62
2023/04/08 10:53:28;;;;;;;11.50;4.83;;;12.40;98.00;;;;;;5032823;28;20472;-62
2023/04/08 10:56:03;;;;;;;14.20;6.00;;;12.50;98.00;;;;;;5033595;28;20468;-62
2023/04/08 10:58:30;;;;;;;10.23;5.27;;;12.50;98.00;;;;;;5034000;28;20580;-62
2023/04/08 11:01:04;;;;;;;11.80;5.90;;;12.50;98.00;;;;;;5033793;28;20460;-62
2023/04/08 11:03:33;;;;;;;10.97;5.10;;;12.50;98.00;;;;;;5032542;28;20951;-62
2023/04/08 11:06:01;;;;;;;14.97;6.57;;;12.50;98.00;;;;;;5033575;28;20551;-62
2023/04/08 11:08:29;;;;;;;10.83;4.80;;;12.50;98.00;;;;;;5033535;28;20454;-64
2023/04/08 11:10:57;;;;;;;13.73;4.90;;;12.60;98.00;;;;;;5033366;28;20461;-62
2023/04/08 11:13:24;;;;;;;11.90;4.67;;;12.60;98.00;;;;;;5033303;28;20457;-64
2023/04/08 11:15:52;;;;;;;11.43;3.80;;;12.60;98.00;;;;;;5033222;28;20526;-62
2023/04/08 11:18:22;;;;;;;8.80;4.20;;;12.50;98.00;;;;;;5033138;28;20494;-62
2023/04/08 11:20:51;;;;;;;9.07;4.20;;;12.40;98.00;;;;;;5033212;28;20867;-62
2023/04/08 11:23:18;;;;;;;10.20;4.20;;;12.40;98.00;;;;;;5031965;28;20510;-62
2023/04/08 11:25:47;;;;;;;10.23;4.40;;;12.50;98.00;;;;;;5033018;28;20464;-62
2023/04/08 11:28:19;;;;;;;9.60;4.40;;;12.50;97.90;;;;;;5033120;28;20451;-63
2023/04/08 11:30:48;;;;;;;8.70;4.63;;;12.50;97.80;;;;;;5032675;28;20460;-64
2023/04/08 11:33:16;;;;;;;7.37;3.90;;;12.60;98.00;;;;;;5033013;28;20973;-63
2023/04/08 11:35:44;;;;;;;8.73;3.63;;;12.60;97.40;;;;;;5033023;28;20521;-63
2023/04/08 11:38:12;;;;;;;12.43;4.83;;;12.40;96.30;;;;;;5033514;28;20489;-63
2023/04/08 11:40:39;;;;;;;7.03;3.50;;;12.40;96.50;;;;;;5033460;28;20453;-63
2023/04/08 11:43:11;;;;;;;7.50;3.60;;;12.30;96.50;;;;;;5032402;28;20839;-63
2023/04/08 11:45:39;;;;;;;8.57;4.10;;;12.30;96.40;;;;;;5033380;28;20935;-63
2023/04/08 11:48:10;;;;;;;8.53;3.60;;;12.30;97.00;;;;;;5033566;28;20455;-63
2023/04/08 11:50:38;;;;;;;8.00;4.03;;;12.30;97.60;;;;;;5033474;28;20461;-64
2023/04/08 11:53:17;;;;;;;8.30;4.07;;;12.30;96.60;;;;;;5032218;28;20454;-62
2023/04/08 11:55:45;;;;;;;7.67;4.10;;;12.30;96.40;;;;;;5033385;28;20546;-63
2023/04/08 11:58:12;;;;;;;10.60;4.37;;;12.30;96.90;;;;;;5033560;28;20562;-63
2023/04/08 12:00:40;;;;;;;8.27;3.80;;;12.30;96.90;;;;;;5033162;28;20462;-63
2023/04/08 12:03:07;;;;;;;11.50;4.30;;;12.40;97.00;;;;;;5033186;28;20464;-63
2023/04/08 12:05:35;;;;;;;6.40;3.30;;;12.30;97.10;;;;;;5032617;28;20527;-64
2023/04/08 12:08:03;;;;;;;6.23;3.53;;;12.20;97.80;;;;;;5033082;28;20470;-62
2023/04/08 12:10:31;;;;;;;7.63;3.73;;;12.20;98.00;;;;;;5032825;28;20495;-62
2023/04/08 12:12:58;;;;;;;6.70;3.70;;;12.20;98.00;;;;;;5032614;28;20904;-62
2023/04/08 12:15:26;;;;;;;7.73;3.63;;;12.20;97.40;;;;;;5039074;28;20724;-63
2023/04/08 12:17:53;;;;;;;8.00;4.20;;;12.20;98.00;;;;;;5050140;28;20958;-62
2023/04/08 12:20:20;;;;;;;8.73;3.90;;;12.30;97.40;;;;;;5052502;28;20460;-62
2023/04/08 12:22:47;;;;;;;7.73;4.03;;;12.20;98.00;;;;;;5052602;28;20454;-63
2023/04/08 12:25:14;;;;;;;7.63;3.87;;;12.20;97.70;;;;;;5052528;28;20483;-63
2023/04/08 12:27:46;;;;;;;10.90;4.53;;;12.20;97.50;;;;;;5043080;28;20466;-62
2023/04/08 12:30:14;;;;;;;5.47;3.50;;;12.30;98.00;;;;;;5031935;28;20474;-62
2023/04/08 12:32:44;;;;;;;8.70;3.70;;;12.30;98.00;;;;;;5031087;28;20538;-62
2023/04/08 12:35:11;;;;;;;7.67;4.00;;;12.30;98.00;;;;;;5032272;28;20537;-63
2023/04/08 12:37:38;;;;;;;9.37;4.07;;;12.30;98.00;;;;;;5031264;28;20512;-64
2023/04/08 12:40:07;;;;;;;12.57;4.77;;;12.40;97.70;;;;;;5031324;28;20490;-63
2023/04/08 12:42:35;;;;;;;12.03;4.00;;;12.30;98.00;;;;;;5031278;28;20471;-64
2023/04/08 12:45:04;;;;;;;6.73;3.60;;;12.30;98.00;;;;;;5032566;28;20524;-64
2023/04/08 12:47:32;;;;;;;8.87;3.80;;;12.20;98.00;;;;;;5032520;28;20874;-64
2023/04/08 12:49:59;;;;;;;8.00;3.90;;;12.10;98.00;;;;;;5031344;28;20467;-64
2023/04/08 12:52:28;;;;;;;8.37;4.17;;;12.10;98.00;;;;;;5031166;28;20529;-62
2023/04/08 12:54:55;;;;;;;10.23;4.60;;;12.20;98.00;;;;;;5032338;28;20455;-63